Time;durP1;ratioP1;P1;durP2;ratioP2;P2;SDS_P1;SDS_P2;PMS_P1;PMS_P2;Temp;Humidity;BMP_temperature;BMP_pressure;BME280_temperature;BME280_humidity;BME280_pressure;Samples;Min_cycle;Max_cycle;Signal;HPM_P1;HPM_P2
2024/04/24 00:01:05;;;;;;;27.60;3.90;;;;;;;5.45;51.95;100533.78;5337808;26;20022;-69
2024/04/24 00:03:32;;;;;;;31.60;4.75;;;;;;;5.37;51.98;100524.19;5280592;26;20500;-69
2024/04/24 00:05:58;;;;;;;16.67;3.65;;;;;;;5.39;52.17;100537.09;5368231;26;20015;-69
2024/04/24 00:08:24;;;;;;;20.23;3.67;;;;;;;5.35;52.35;100523.28;5300469;26;20052;-69
2024/04/24 00:10:53;;;;;;;17.55;3.97;;;;;;;5.36;52.45;100529.28;5338800;26;20012;-69
2024/04/24 00:13:19;;;;;;;18.35;4.00;;;;;;;5.32;52.43;100525.78;5313050;26;20013;-69
2024/04/24 00:15:45;;;;;;;9.70;2.88;;;;;;;5.18;52.67;100512.53;5335114;26;20051;-68
2024/04/24 00:18:11;;;;;;;9.95;2.92;;;;;;;5.18;52.51;100522.84;5337749;26;20450;-70
2024/04/24 00:20:40;;;;;;;9.43;2.95;;;;;;;5.13;52.81;100514.13;5386900;26;19999;-70
2024/04/24 00:23:06;;;;;;;10.75;3.28;;;;;;;5.05;53.13;100510.50;5401242;26;20081;-70
2024/04/24 00:25:32;;;;;;;14.45;3.33;;;;;;;5.08;53.42;100518.28;5396137;26;20011;-69
2024/04/24 00:27:58;;;;;;;13.05;3.22;;;;;;;4.90;53.25;100491.19;5340659;26;20019;-71
2024/04/24 00:30:24;;;;;;;6.90;2.50;;;;;;;5.02;53.73;100516.44;5399996;26;20387;-70
2024/04/24 00:32:50;;;;;;;11.98;3.03;;;;;;;5.00;53.70;100512.06;5397954;26;20011;-70
2024/04/24 00:35:19;;;;;;;12.25;2.80;;;;;;;4.83;53.88;100489.31;5342557;26;20465;-69
2024/04/24 00:37:45;;;;;;;8.85;3.45;;;;;;;4.79;53.70;100495.22;5399045;26;20022;-70
2024/04/24 00:40:12;;;;;;;11.20;2.85;;;;;;;4.72;53.41;100496.78;5370877;26;20434;-70
2024/04/24 00:42:38;;;;;;;10.57;3.13;;;;;;;4.83;54.04;100515.09;5351096;26;20000;-68
2024/04/24 00:45:04;;;;;;;8.77;3.25;;;;;;;4.79;54.08;100506.41;5338688;26;20377;-69
2024/04/24 00:47:33;;;;;;;7.03;2.70;;;;;;;4.75;54.36;100511.44;5367171;26;20188;-70
2024/04/24 00:50:00;;;;;;;14.20;2.97;;;;;;;4.65;54.34;100490.56;5343514;26;20068;-69
2024/04/24 00:52:28;;;;;;;10.45;2.60;;;;;;;4.71;54.34;100510.50;5314831;26;20122;-69
2024/04/24 00:54:55;;;;;;;10.63;2.90;;;;;;;4.70;54.49;100505.28;5307162;26;20019;-70
2024/04/24 00:57:21;;;;;;;8.98;3.00;;;;;;;4.75;54.83;100522.63;5366434;26;20011;-70
2024/04/24 00:59:47;;;;;;;11.98;3.55;;;;;;;4.50;54.56;100496.22;5335908;26;21656;-70
2024/04/24 01:02:13;;;;;;;13.57;2.95;;;;;;;4.62;55.02;100511.13;5395651;26;20011;-69
2024/04/24 01:04:39;;;;;;;15.98;3.63;;;;;;;4.45;54.74;100491.72;5365451;26;20005;-69
2024/04/24 01:07:05;;;;;;;9.40;2.83;;;;;;;4.45;55.14;100502.94;5336624;26;20015;-69
2024/04/24 01:09:32;;;;;;;7.78;3.10;;;;;;;4.43;55.05;100503.69;5343701;26;20016;-70
2024/04/24 01:11:58;;;;;;;9.85;3.05;;;;;;;4.48;55.09;100513.34;5363777;26;20470;-71
2024/04/24 01:14:24;;;;;;;10.00;2.65;;;;;;;4.47;55.29;100526.16;5340011;26;20490;-70
2024/04/24 01:16:50;;;;;;;16.60;4.13;;;;;;;4.42;55.34;100528.63;5335328;26;20081;-71
2024/04/24 01:19:19;;;;;;;13.20;3.83;;;;;;;4.34;55.14;100533.56;5393164;26;20029;-69
2024/04/24 01:22:10;;;;;;;9.77;3.60;;;;;;;4.28;55.67;100532.53;5314120;26;20019;-71
2024/04/24 01:24:41;;;;;;;13.90;3.90;;;;;;;4.22;55.91;100522.88;5314510;26;20011;-70
2024/04/24 01:27:08;;;;;;;15.02;3.95;;;;;;;4.10;55.83;100513.09;5339367;26;20058;-70
2024/04/24 01:29:34;;;;;;;10.32;3.47;;;;;;;4.14;56.00;100537.28;5364691;26;20077;-70
2024/04/24 01:32:00;;;;;;;13.40;4.20;;;;;;;4.06;56.06;100534.47;5337510;26;20458;-70
2024/04/24 01:34:29;;;;;;;18.08;4.22;;;;;;;3.93;56.13;100530.66;5311573;26;20462;-69
2024/04/24 01:36:55;;;;;;;9.40;4.20;;;;;;;3.91;56.27;100540.03;5399712;26;20043;-70
2024/04/24 01:39:21;;;;;;;11.38;4.47;;;;;;;3.76;57.03;100528.44;5365491;26;20008;-69
2024/04/24 01:41:47;;;;;;;9.05;4.15;;;;;;;3.61;56.89;100515.97;5343458;26;20003;-69
2024/04/24 01:44:13;;;;;;;6.88;3.70;;;;;;;3.59;57.14;100515.06;5361888;26;20019;-70
2024/04/24 01:46:39;;;;;;;12.45;4.05;;;;;;;3.54;57.32;100521.75;5366358;26;20019;-70
2024/04/24 01:49:07;;;;;;;9.43;3.97;;;;;;;3.50;57.25;100525.06;5341979;26;19999;-70
2024/04/24 01:51:33;;;;;;;11.40;4.20;;;;;;;3.54;57.72;100536.31;5334336;26;20016;-71
2024/04/24 01:53:59;;;;;;;7.18;4.15;;;;;;;3.56;57.93;100543.28;5367831;26;20746;-71
2024/04/24 01:56:25;;;;;;;8.82;4.07;;;;;;;3.41;57.92;100522.22;5304571;26;20022;-70
2024/04/24 01:58:51;;;;;;;11.60;3.97;;;;;;;3.45;58.18;100534.31;5366705;26;20011;-71
2024/04/24 02:01:17;;;;;;;8.55;3.50;;;;;;;3.47;58.43;100535.25;5365631;26;20084;-70
2024/04/24 02:03:43;;;;;;;9.73;4.20;;;;;;;3.49;58.19;100545.59;5371488;26;20007;-71
2024/04/24 02:06:09;;;;;;;8.77;4.65;;;;;;;3.33;58.28;100539.94;5364771;26;20018;-71
2024/04/24 02:08:35;;;;;;;12.15;4.90;;;;;;;3.15;58.90;100523.09;5337770;26;20003;-71
2024/04/24 02:11:02;;;;;;;6.57;3.55;;;;;;;3.26;58.63;100548.31;5398928;26;20015;-70
2024/04/24 02:13:28;;;;;;;9.95;3.72;;;;;;;3.34;58.85;100569.13;5366527;26;20077;-72
2024/04/24 02:15:54;;;;;;;10.55;4.20;;;;;;;3.27;59.05;100557.78;5365080;26;20158;-71
2024/04/24 02:18:20;;;;;;;13.10;4.40;;;;;;;3.29;59.02;100564.72;5363605;26;20015;-71
2024/04/24 02:20:46;;;;;;;13.18;4.85;;;;;;;3.17;59.14;100549.75;5337856;26;20085;-71
2024/04/24 02:23:18;;;;;;;10.35;4.70;;;;;;;3.31;59.25;100570.78;5335905;26;20105;-71
2024/04/24 02:25:46;;;;;;;11.73;4.15;;;;;;;3.36;59.35;100575.22;5387780;26;20000;-69
2024/04/24 02:28:12;;;;;;;7.93;4.13;;;;;;;3.39;59.48;100577.88;5371618;26;20000;-68
2024/04/24 02:30:38;;;;;;;13.25;5.40;;;;;;;3.40;59.31;100582.22;5336688;26;20007;-70
2024/04/24 02:33:04;;;;;;;14.77;5.63;;;;;;;3.42;59.47;100575.41;5336172;26;20011;-69
2024/04/24 02:35:30;;;;;;;18.67;6.38;;;;;;;3.55;59.53;100577.56;5364197;26;20019;-69
2024/04/24 02:37:56;;;;;;;24.08;5.80;;;;;;;3.63;59.51;100584.66;5397153;26;20010;-69
2024/04/24 02:40:22;;;;;;;11.80;5.55;;;;;;;3.70;59.52;100587.47;5308113;26;20016;-69
2024/04/24 02:42:49;;;;;;;8.88;4.78;;;;;;;3.75;59.47;100596.19;5396469;26;19999;-68
2024/04/24 02:45:15;;;;;;;17.85;5.65;;;;;;;3.82;59.62;100591.25;5370124;26;20026;-69
2024/04/24 02:47:41;;;;;;;13.25;5.28;;;;;;;3.88;59.60;100597.44;5332703;26;20048;-68
2024/04/24 02:50:07;;;;;;;12.98;4.95;;;;;;;3.90;59.68;100582.94;5311853;26;20026;-69
2024/04/24 02:52:33;;;;;;;12.13;6.00;;;;;;;4.15;59.74;100599.13;5319690;26;20029;-67
2024/04/24 02:54:59;;;;;;;10.02;5.43;;;;;;;4.16;59.89;100582.84;5315345;26;20003;-68
2024/04/24 02:57:25;;;;;;;11.07;5.22;;;;;;;4.35;59.72;100601.41;5367455;26;20075;-68
2024/04/24 02:59:51;;;;;;;9.75;5.45;;;;;;;4.34;59.52;100587.69;5341577;26;20389;-69
2024/04/24 03:02:16;;;;;;;10.52;5.07;;;;;;;4.57;59.68;100607.19;5367547;26;20015;-68
2024/04/24 03:04:42;;;;;;;14.70;5.78;;;;;;;4.72;59.53;100615.38;5337449;26;20000;-67
2024/04/24 03:07:08;;;;;;;15.90;6.05;;;;;;;4.50;59.69;100550.34;5346642;26;20351;-70
2024/04/24 03:09:35;;;;;;;14.18;5.00;;;;;;;4.97;59.37;100616.03;5400229;26;20026;-70
2024/04/24 03:12:01;;;;;;;14.05;5.28;;;;;;;4.82;59.22;100567.50;5404116;26;20028;-69
2024/04/24 03:14:27;;;;;;;16.77;6.00;;;;;;;4.85;59.40;100549.53;5370842;26;20513;-68
2024/04/24 03:16:53;;;;;;;11.43;5.40;;;;;;;5.19;59.09;100576.19;5320306;26;20580;-70
2024/04/24 03:19:19;;;;;;;10.00;5.45;;;;;;;5.34;59.03;100583.47;5376798;26;20433;-69
2024/04/24 03:21:45;;;;;;;15.48;5.57;;;;;;;5.53;58.83;100602.84;5371611;26;20543;-73
2024/04/24 03:24:11;;;;;;;10.73;4.95;;;;;;;5.58;58.69;100602.97;5333981;26;20008;-72
2024/04/24 03:26:37;;;;;;;10.80;5.55;;;;;;;5.56;58.39;100589.16;5363225;26;20089;-71
2024/04/24 03:29:03;;;;;;;10.65;5.78;;;;;;;5.76;58.71;100605.09;5377367;26;19999;-77
2024/04/24 03:31:36;;;;;;;8.02;5.32;;;;;;;5.71;58.31;100581.75;5372322;26;20015;-75
2024/04/24 03:34:02;;;;;;;15.55;5.60;;;;;;;5.99;58.36;100612.53;5314886;26;20007;-74
2024/04/24 03:36:28;;;;;;;12.40;5.50;;;;;;;6.03;58.29;100602.34;5350033;26;20077;-71
2024/04/24 03:38:55;;;;;;;14.57;6.28;;;;;;;6.21;58.12;100613.94;5374843;26;20011;-74
2024/04/24 03:41:21;;;;;;;16.83;5.97;;;;;;;6.30;57.95;100608.09;5402804;26;20244;-75
2024/04/24 03:43:48;;;;;;;11.52;6.25;;;;;;;6.21;57.81;100579.44;5312354;26;20003;-73
2024/04/24 03:46:14;;;;;;;13.45;6.28;;;;;;;6.55;57.63;100616.34;5400830;26;20026;-73
2024/04/24 03:48:40;;;;;;;13.45;5.32;;;;;;;6.70;57.36;100608.03;5347253;26;20162;-71
2024/04/24 03:51:06;;;;;;;19.40;6.57;;;;;;;6.78;57.35;100597.00;5365426;26;20079;-72
2024/04/24 03:53:33;;;;;;;13.32;6.45;;;;;;;7.03;57.21;100606.94;5399064;26;20082;-73
2024/04/24 03:55:59;;;;;;;18.20;6.93;;;;;;;7.22;56.97;100601.22;5360833;26;20018;-73
2024/04/24 03:58:25;;;;;;;14.18;6.32;;;;;;;7.45;56.84;100593.00;5398607;26;20051;-74
2024/04/24 04:00:51;;;;;;;13.07;6.05;;;;;;;7.73;56.65;100595.16;5333645;26;19999;-72
2024/04/24 04:03:17;;;;;;;17.00;6.38;;;;;;;8.04;56.40;100606.88;5360585;26;20084;-71
2024/04/24 04:05:43;;;;;;;15.80;6.03;;;;;;;8.06;55.63;100562.81;5395185;26;20017;-72
2024/04/24 04:08:09;;;;;;;12.00;5.60;;;;;;;8.53;55.28;100590.22;5343423;26;20039;-71
2024/04/24 04:10:36;;;;;;;12.98;5.45;;;;;;;8.74;54.78;100574.91;5364566;26;20334;-70
2024/04/24 04:13:02;;;;;;;6.22;4.50;;;;;;;9.12;54.24;100581.34;5342132;26;21536;-75
2024/04/24 04:15:28;;;;;;;6.93;4.57;;;;;;;9.28;53.84;100561.59;5341145;26;20031;-73
2024/04/24 04:17:55;;;;;;;11.07;4.93;;;;;;;9.64;53.15;100591.31;5336003;26;20024;-71
2024/04/24 04:20:21;;;;;;;10.77;4.28;;;;;;;9.75;52.48;100575.81;5336401;26;20026;-73
2024/04/24 04:22:47;;;;;;;9.45;4.15;;;;;;;10.04;52.08;100592.47;5362747;26;20007;-72
2024/04/24 04:25:13;;;;;;;7.97;4.35;;;;;;;10.19;51.49;100578.66;5365191;26;20469;-75
2024/04/24 04:27:39;;;;;;;8.45;4.90;;;;;;;10.62;51.12;100583.22;5368586;26;20467;-72
2024/04/24 04:30:06;;;;;;;8.63;4.25;;;;;;;10.66;50.37;100543.34;5326963;26;20003;-75
2024/04/24 04:32:33;;;;;;;7.55;4.30;;;;;;;11.13;49.81;100584.22;5346137;26;20027;-71
2024/04/24 04:34:59;;;;;;;9.10;4.60;;;;;;;11.32;48.80;100563.38;5368194;26;20358;-72
2024/04/24 04:37:25;;;;;;;9.20;4.97;;;;;;;11.51;48.73;100577.25;5396408;26;20095;-74
2024/04/24 04:39:51;;;;;;;8.68;4.03;;;;;;;11.57;47.74;100566.84;5367201;26;20045;-71
2024/04/24 04:42:17;;;;;;;7.43;4.18;;;;;;;11.56;47.50;100564.25;5345246;26;20085;-72
2024/04/24 04:44:43;;;;;;;8.95;4.13;;;;;;;11.60;47.45;100565.97;5368787;26;20532;-72
2024/04/24 04:47:09;;;;;;;7.75;4.10;;;;;;;11.78;47.57;100574.66;5367543;26;20026;-72
2024/04/24 04:49:35;;;;;;;8.00;5.00;;;;;;;11.93;46.62;100555.47;5400881;26;20080;-74
2024/04/24 04:52:01;;;;;;;6.20;4.35;;;;;;;11.93;46.21;100545.94;5343971;26;20494;-73
2024/04/24 04:54:27;;;;;;;5.57;3.58;;;;;;;12.08;45.68;100554.59;5342001;26;20026;-72
2024/04/24 04:56:53;;;;;;;9.07;4.45;;;;;;;12.26;45.44;100562.38;5342300;26;20007;-72
2024/04/24 04:59:20;;;;;;;6.65;3.92;;;;;;;12.52;45.24;100558.78;5368219;26;19999;-73
2024/04/24 05:01:46;;;;;;;9.32;4.07;;;;;;;12.73;44.62;100557.81;5371525;26;20011;-72
2024/04/24 05:04:12;;;;;;;8.18;3.92;;;;;;;12.93;44.42;100559.44;5363514;26;20374;-70
2024/04/24 05:06:38;;;;;;;10.30;4.55;;;;;;;13.03;43.68;100534.13;5365033;26;20022;-71
2024/04/24 05:09:04;;;;;;;8.50;4.20;;;;;;;13.31;43.75;100557.44;5341377;26;20004;-70
2024/04/24 05:11:30;;;;;;;6.32;3.92;;;;;;;13.33;43.22;100532.16;5366833;26;20117;-74
2024/04/24 05:13:56;;;;;;;9.73;4.35;;;;;;;13.61;42.67;100545.88;5367372;26;20525;-73
2024/04/24 05:16:22;;;;;;;7.35;3.90;;;;;;;14.06;42.38;100557.63;5375901;26;20368;-73
2024/04/24 05:18:48;;;;;;;5.25;3.60;;;;;;;14.73;42.37;100553.28;5345444;26;20018;-73
2024/04/24 05:21:14;;;;;;;5.95;4.15;;;;;;;15.97;40.40;100542.53;5374293;26;20012;-71
2024/04/24 05:23:41;;;;;;;7.30;3.78;;;;;;;18.06;39.11;100518.38;5375393;26;20077;-72
2024/04/24 05:29:04;;;;;;;4.82;3.22;;;;;;;22.38;33.78;100516.50;5396543;26;20011;-73
2024/04/24 05:31:37;;;;;;;7.78;3.25;;;;;;;23.97;31.62;100512.19;5367471;26;20069;-75
2024/04/24 05:34:03;;;;;;;7.05;3.30;;;;;;;25.53;28.96;100511.38;5401550;26;20493;-72
2024/04/24 05:36:30;;;;;;;7.25;3.50;;;;;;;26.65;27.55;100503.63;5366764;26;20123;-74
2024/04/24 05:38:56;;;;;;;4.90;2.80;;;;;;;27.78;25.92;100504.06;5373359;26;20000;-75
2024/04/24 05:41:22;;;;;;;5.82;3.97;;;;;;;28.74;24.27;100486.53;5364509;26;20044;-72
2024/04/24 05:43:48;;;;;;;6.28;3.65;;;;;;;29.23;23.24;100478.44;5373039;26;20470;-71
2024/04/24 05:46:14;;;;;;;5.15;3.65;;;;;;;30.14;22.07;100513.38;5368865;26;20015;-74
2024/04/24 05:48:40;;;;;;;7.70;3.65;;;;;;;31.00;20.59;100510.03;5343614;26;20037;-70
2024/04/24 05:51:06;;;;;;;6.25;3.67;;;;;;;31.81;20.15;100502.22;5368434;26;20004;-72
2024/04/24 05:53:32;;;;;;;7.75;3.90;;;;;;;32.56;19.17;100492.94;5365996;26;20003;-73
2024/04/24 05:55:58;;;;;;;8.80;4.30;;;;;;;33.01;18.26;100478.91;5394463;26;20080;-75
2024/04/24 05:58:24;;;;;;;4.30;3.63;;;;;;;33.82;17.29;100487.53;5343335;26;20018;-77
2024/04/24 06:00:51;;;;;;;6.55;3.97;;;;;;;33.87;15.88;100497.88;5373637;26;20399;-76
2024/04/24 06:03:17;;;;;;;6.15;3.63;;;;;;;33.52;16.43;100481.41;5336900;26;20019;-74
2024/04/24 06:05:43;;;;;;;6.93;3.95;;;;;;;33.30;16.30;100487.97;5367112;26;20000;-74
2024/04/24 06:08:09;;;;;;;6.55;3.80;;;;;;;32.95;16.24;100484.91;5337855;26;20373;-74
2024/04/24 06:10:35;;;;;;;6.60;3.85;;;;;;;33.77;16.39;100474.47;5333174;26;20884;-72
2024/04/24 06:13:01;;;;;;;4.20;3.80;;;;;;;34.83;15.32;100445.25;5397173;26;20007;-73
2024/04/24 06:15:28;;;;;;;5.38;3.85;;;;;;;35.25;14.54;100477.03;5307856;26;20012;-71
2024/04/24 06:17:55;;;;;;;4.90;3.45;;;;;;;34.73;13.87;100448.06;5369310;26;20016;-71
2024/04/24 06:20:21;;;;;;;5.35;3.30;;;;;;;34.68;14.32;100461.19;5374373;26;20054;-73
2024/04/24 06:22:48;;;;;;;10.60;3.95;;;;;;;35.34;13.81;100480.63;5360092;26;20026;-72
2024/04/24 06:25:15;;;;;;;6.65;3.50;;;;;;;36.22;13.49;100475.13;5368149;26;20015;-72
2024/04/24 06:27:41;;;;;;;3.63;3.22;;;;;;;37.02;12.75;100476.44;5393674;26;20039;-72
2024/04/24 06:30:08;;;;;;;7.25;3.17;;;;;;;37.90;12.81;100479.25;5342571;26;20072;-73
2024/04/24 06:32:35;;;;;;;6.88;3.13;;;;;;;38.65;11.98;100480.56;5368065;26;20057;-73
2024/04/24 06:35:02;;;;;;;5.47;3.28;;;;;;;38.41;11.71;100470.72;5343072;26;20042;-73
2024/04/24 06:37:30;;;;;;;2.78;2.55;;;;;;;39.10;10.96;100456.22;5344666;26;19999;-74
2024/04/24 06:39:56;;;;;;;5.10;2.83;;;;;;;38.83;10.37;100479.41;5343575;26;20004;-72
2024/04/24 06:42:23;;;;;;;6.25;3.28;;;;;;;38.21;10.14;100475.75;5340862;26;20011;-69
2024/04/24 06:44:50;;;;;;;4.28;3.10;;;;;;;38.78;10.59;100477.22;5311848;26;20008;-71
2024/04/24 06:47:16;;;;;;;3.67;3.10;;;;;;;38.99;9.51;100471.09;5362973;26;20094;-72
2024/04/24 06:49:42;;;;;;;4.47;3.03;;;;;;;38.17;9.89;100464.41;5312198;26;20020;-72
2024/04/24 06:52:09;;;;;;;7.32;4.10;;;;;;;38.29;9.97;100453.94;5389478;26;20010;-71
2024/04/24 06:54:34;;;;;;;3.75;2.53;;;;;;;39.18;9.41;100460.72;5340683;26;20008;-73
2024/04/24 06:57:33;;;;;;;5.80;2.97;;;;;;;40.16;8.76;100474.22;5367443;26;20003;-73
2024/04/24 06:59:59;;;;;;;7.50;2.90;;;;;;;40.54;8.88;100466.84;5371142;26;20430;-73
2024/04/24 07:02:25;;;;;;;7.15;2.60;;;;;;;40.83;8.24;100467.75;5363410;26;20016;-71
2024/04/24 07:04:51;;;;;;;4.72;2.90;;;;;;;41.00;8.00;100452.78;5343816;26;20109;-74
2024/04/24 07:07:17;;;;;;;4.88;3.47;;;;;;;40.99;7.72;100444.81;5346996;26;20005;-73
2024/04/24 07:09:44;;;;;;;6.65;3.20;;;;;;;40.68;7.92;100443.31;5376695;26;20018;-74
2024/04/24 07:12:10;;;;;;;4.88;3.75;;;;;;;40.85;7.60;100460.22;5347411;26;20062;-75
2024/04/24 07:14:36;;;;;;;5.70;2.97;;;;;;;40.93;8.28;100432.81;5367023;26;20368;-73
2024/04/24 07:17:04;;;;;;;5.55;3.67;;;;;;;41.46;7.38;100464.22;5350223;26;20014;-71
2024/04/24 07:19:31;;;;;;;4.68;3.65;;;;;;;42.22;6.81;100465.19;5338380;26;20496;-75
2024/04/24 07:21:57;;;;;;;3.00;2.80;;;;;;;42.43;7.39;100461.47;5352512;26;20004;-74
2024/04/24 07:24:23;;;;;;;5.75;3.53;;;;;;;42.79;7.07;100438.34;5351780;26;20008;-72
2024/04/24 07:26:49;;;;;;;5.25;2.33;;;;;;;43.21;6.26;100460.00;5366979;26;20015;-73
2024/04/24 07:29:15;;;;;;;4.43;2.78;;;;;;;43.43;6.59;100430.47;5373703;26;20079;-74
2024/04/24 07:31:41;;;;;;;6.82;3.42;;;;;;;43.81;6.89;100439.81;5345438;26;20015;-71
2024/04/24 07:34:07;;;;;;;6.15;4.90;;;;;;;44.03;6.67;100431.25;5309756;26;20041;-71
2024/04/24 07:36:34;;;;;;;5.18;3.25;;;;;;;44.28;5.97;100447.75;5313743;26;20016;-72
2024/04/24 07:39:00;;;;;;;5.00;3.28;;;;;;;44.68;6.55;100421.94;5349788;26;20019;-71
2024/04/24 07:41:26;;;;;;;8.82;3.13;;;;;;;44.20;5.69;100434.34;5339314;26;20005;-72
2024/04/24 07:43:52;;;;;;;9.32;3.30;;;;;;;44.25;5.87;100439.97;5343805;26;20652;-72
2024/04/24 07:46:18;;;;;;;10.85;3.17;;;;;;;44.48;5.91;100424.84;5320410;26;20009;-74
2024/04/24 07:48:44;;;;;;;7.55;5.38;;;;;;;44.60;6.61;100416.75;5338060;26;20040;-72
2024/04/24 07:51:10;;;;;;;4.88;3.33;;;;;;;44.93;5.78;100424.69;5323619;26;20014;-74
2024/04/24 07:53:39;;;;;;;3.00;2.70;;;;;;;45.08;6.20;100407.84;5314340;26;20008;-72
2024/04/24 07:56:05;;;;;;;4.55;3.00;;;;;;;45.67;5.79;100412.91;5326944;26;20032;-71
2024/04/24 07:58:33;;;;;;;6.35;4.40;;;;;;;45.02;5.38;100411.53;5347125;26;20361;-73
2024/04/24 08:01:00;;;;;;;9.43;3.22;;;;;;;44.11;6.02;100403.63;5306660;26;20481;-73
2024/04/24 08:03:26;;;;;;;11.27;3.50;;;;;;;43.52;6.37;100402.84;5338835;26;20406;-77
2024/04/24 08:05:52;;;;;;;7.53;3.20;;;;;;;41.27;6.08;100386.69;5283193;26;20138;-83
2024/04/24 08:08:21;;;;;;;8.68;2.90;;;;;;;40.28;6.78;100408.31;5340267;26;20367;-80
2024/04/24 08:10:47;;;;;;;6.83;2.93;;;;;;;40.22;7.04;100396.31;5378054;26;20397;-77
2024/04/24 08:13:15;;;;;;;5.35;2.70;;;;;;;41.09;6.56;100396.22;5323532;26;20242;-77
2024/04/24 08:15:42;;;;;;;3.55;2.42;;;;;;;42.02;6.38;100383.19;5321326;26;20121;-75
2024/04/24 08:18:08;;;;;;;3.05;2.15;;;;;;;42.85;5.60;100371.88;5367050;26;20478;-72
2024/04/24 08:20:37;;;;;;;2.03;1.90;;;;;;;43.96;6.12;100384.72;5327809;26;20000;-79
2024/04/24 08:23:03;;;;;;;2.53;2.33;;;;;;;44.80;5.21;100381.72;5346363;26;20007;-72
2024/04/24 08:25:29;;;;;;;4.40;2.58;;;;;;;44.80;5.38;100378.16;5400074;26;20028;-74
2024/04/24 08:27:56;;;;;;;6.63;2.65;;;;;;;44.66;5.36;100372.81;5347049;26;20011;-71
2024/04/24 08:30:22;;;;;;;7.25;2.97;;;;;;;44.67;5.18;100374.50;5373899;26;20043;-77
2024/04/24 08:32:48;;;;;;;3.50;2.60;;;;;;;45.20;5.45;100364.00;5373884;26;20016;-72
2024/04/24 08:35:14;;;;;;;4.75;3.03;;;;;;;45.77;5.20;100373.88;5371671;26;20063;-71
2024/04/24 08:37:40;;;;;;;4.50;3.13;;;;;;;45.77;5.29;100351.03;5399636;26;20019;-70
2024/04/24 08:40:06;;;;;;;3.50;2.72;;;;;;;46.12;5.43;100364.06;5376544;26;20004;-72
2024/04/24 08:42:33;;;;;;;4.15;3.40;;;;;;;46.37;5.27;100369.34;5348760;26;20383;-71
2024/04/24 08:45:00;;;;;;;5.43;3.30;;;;;;;45.39;4.76;100334.66;5346724;26;20007;-75
2024/04/24 08:47:27;;;;;;;5.97;3.05;;;;;;;45.28;5.09;100349.16;5376319;26;20072;-72
2024/04/24 08:49:56;;;;;;;3.78;2.80;;;;;;;45.79;5.28;100352.50;5400559;26;20018;-73
2024/04/24 08:52:25;;;;;;;5.95;3.65;;;;;;;44.86;5.10;100318.81;5397497;26;20036;-74
2024/04/24 08:55:03;;;;;;;3.67;3.17;;;;;;;43.18;5.93;100342.72;5373328;26;20532;-72
2024/04/24 08:57:32;;;;;;;5.03;3.05;;;;;;;42.19;6.23;100357.16;5375710;26;20476;-68
2024/04/24 09:00:01;;;;;;;7.57;2.83;;;;;;;42.43;5.21;100324.81;5363786;26;20000;-71
2024/04/24 09:02:36;;;;;;;6.43;3.30;;;;;;;42.31;6.50;100343.69;5350128;26;20010;-70
2024/04/24 09:05:06;;;;;;;6.72;2.88;;;;;;;42.83;5.62;100330.22;5399568;26;20373;-77
2024/04/24 09:07:32;;;;;;;7.53;3.10;;;;;;;43.52;5.80;100331.66;5369059;26;20047;-71
2024/04/24 09:10:03;;;;;;;3.33;3.03;;;;;;;42.94;5.40;100323.25;5365782;26;20004;-76
2024/04/24 09:12:33;;;;;;;7.07;3.63;;;;;;;42.37;6.37;100320.13;5370237;26;20072;-69
2024/04/24 09:14:59;;;;;;;5.63;3.38;;;;;;;41.82;6.41;100318.44;5355600;26;20080;-67
2024/04/24 09:17:25;;;;;;;3.47;3.17;;;;;;;42.74;6.23;100296.75;5341050;26;20007;-68
2024/04/24 09:19:51;;;;;;;15.45;10.85;;;;;;;43.46;5.64;100306.00;5391561;26;20014;-69
2024/04/24 09:22:20;;;;;;;10.68;9.63;;;;;;;43.72;6.06;100307.75;5367413;26;20071;-70
2024/04/24 09:24:50;;;;;;;12.98;9.68;;;;;;;44.05;5.45;100309.41;5354751;26;20017;-70
2024/04/24 09:27:17;;;;;;;6.85;5.18;;;;;;;44.33;6.10;100297.16;5298047;26;20015;-68
2024/04/24 09:29:43;;;;;;;7.32;5.03;;;;;;;43.12;6.27;100297.94;5367399;26;20671;-69
2024/04/24 09:32:10;;;;;;;16.10;14.40;;;;;;;43.07;6.00;100300.47;5315404;26;20083;-70
2024/04/24 09:34:36;;;;;;;5.15;4.65;;;;;;;43.39;5.96;100308.75;5313099;26;20754;-72
2024/04/24 09:37:02;;;;;;;4.25;3.30;;;;;;;43.49;5.79;100292.69;5363902;26;20057;-67
2024/04/24 09:39:30;;;;;;;6.60;3.63;;;;;;;43.70;5.51;100304.41;5370585;26;20458;-71
2024/04/24 09:41:57;;;;;;;3.55;3.03;;;;;;;42.53;5.31;100277.88;5310560;26;20004;-79
2024/04/24 09:44:28;;;;;;;4.85;3.30;;;;;;;42.44;6.52;100293.69;5279990;26;20051;-74
2024/04/24 09:46:54;;;;;;;3.65;2.78;;;;;;;42.58;5.70;100299.97;5334535;26;20020;-73
2024/04/24 09:49:21;;;;;;;5.95;2.75;;;;;;;41.48;5.82;100303.81;5343260;26;20012;-70
2024/04/24 09:51:49;;;;;;;5.80;2.70;;;;;;;40.38;6.68;100312.66;5344617;26;20016;-71
2024/04/24 09:54:17;;;;;;;3.35;2.60;;;;;;;39.73;7.28;100306.13;5381794;26;20499;-70
2024/04/24 09:56:48;;;;;;;3.65;2.78;;;;;;;40.68;6.76;100307.00;5370181;26;20019;-71
2024/04/24 09:59:17;;;;;;;5.20;2.70;;;;;;;41.28;6.26;100318.25;5347509;26;22018;-69
2024/04/24 10:01:51;;;;;;;7.40;2.67;;;;;;;41.80;5.91;100304.13;5347654;26;20016;-70
2024/04/24 10:04:20;;;;;;;4.15;3.13;;;;;;;41.65;6.12;100305.13;5267551;26;20012;-67
2024/04/24 10:06:50;;;;;;;6.53;2.78;;;;;;;41.15;6.71;100313.56;5298972;26;20009;-69
2024/04/24 10:09:29;;;;;;;6.93;4.18;;;;;;;40.27;6.42;100312.13;5327852;26;20085;-68
2024/04/24 10:12:03;;;;;;;10.98;8.68;;;;;;;39.30;7.48;100306.91;5371508;26;20020;-71
2024/04/24 10:14:34;;;;;;;10.63;5.40;;;;;;;39.19;7.26;100299.19;5384915;26;20011;-69
2024/04/24 10:17:01;;;;;;;7.03;4.25;;;;;;;38.35;7.40;100305.69;5316665;26;20494;-70
2024/04/24 10:19:28;;;;;;;8.70;5.45;;;;;;;37.48;8.63;100288.69;5319233;26;20001;-71
2024/04/24 10:21:55;;;;;;;9.48;5.40;;;;;;;38.16;7.51;100272.59;5342087;26;20032;-71
2024/04/24 10:24:22;;;;;;;3.40;3.10;;;;;;;38.63;7.74;100278.78;5369754;26;20003;-70
2024/04/24 10:26:50;;;;;;;5.47;3.17;;;;;;;38.84;8.24;100280.75;5345369;26;20101;-69
2024/04/24 10:29:19;;;;;;;4.03;3.72;;;;;;;38.52;7.81;100269.22;5343264;26;20769;-77
2024/04/24 10:31:50;;;;;;;4.72;4.22;;;;;;;37.85;8.15;100272.66;5366285;26;20014;-70
2024/04/24 10:34:17;;;;;;;8.77;3.60;;;;;;;36.79;8.05;100271.09;5362439;26;20044;-74
2024/04/24 10:36:45;;;;;;;10.63;3.65;;;;;;;34.83;8.67;100283.97;5364743;26;20354;-73
2024/04/24 10:39:13;;;;;;;11.52;5.85;;;;;;;32.32;10.71;100283.38;5364752;26;20014;-72
2024/04/24 10:41:43;;;;;;;4.78;3.17;;;;;;;30.25;11.13;100284.44;5312929;26;21373;-72
2024/04/24 10:44:10;;;;;;;7.45;3.50;;;;;;;29.10;11.69;100291.84;5299683;26;20004;-76
2024/04/24 10:46:41;;;;;;;11.23;5.80;;;;;;;28.38;11.95;100290.25;5340265;26;20046;-68
2024/04/24 10:49:09;;;;;;;25.08;13.10;;;;;;;27.36;13.54;100279.88;5333162;26;20081;-72
2024/04/24 10:51:36;;;;;;;6.28;3.22;;;;;;;26.43;13.53;100288.94;5372172;26;20008;-71
2024/04/24 10:54:15;;;;;;;4.60;3.55;;;;;;;25.46;14.67;100262.34;5339272;26;20004;-73
2024/04/24 10:56:43;;;;;;;25.23;17.70;;;;;;;25.41;14.78;100269.75;5401323;26;20012;-71
2024/04/24 10:59:10;;;;;;;23.27;16.77;;;;;;;25.41;14.95;100283.06;5339964;26;20027;-71
2024/04/24 11:01:39;;;;;;;13.30;4.10;;;;;;;25.04;15.28;100256.09;5331705;26;20021;-70
2024/04/24 11:04:06;;;;;;;9.40;4.28;;;;;;;24.62;15.41;100288.69;5390225;26;20441;-70
2024/04/24 11:06:34;;;;;;;6.88;5.22;;;;;;;23.76;15.74;100250.22;5391358;26;20122;-72
2024/04/24 11:09:03;;;;;;;13.50;4.28;;;;;;;23.79;16.05;100286.41;5340134;26;20016;-72
2024/04/24 11:11:31;;;;;;;15.32;10.00;;;;;;;22.99;16.63;100275.69;5369252;26;20105;-74
2024/04/24 11:14:01;;;;;;;6.10;3.60;;;;;;;22.34;17.22;100286.94;5394452;26;20008;-70
2024/04/24 11:16:27;;;;;;;4.25;2.50;;;;;;;22.04;17.62;100283.09;5360805;26;20000;-71
2024/04/24 11:18:53;;;;;;;15.00;3.92;;;;;;;21.84;17.52;100289.34;5369502;26;20050;-69
2024/04/24 11:21:26;;;;;;;9.63;2.88;;;;;;;21.82;17.77;100285.94;5333989;26;20047;-71
2024/04/24 11:23:55;;;;;;;4.93;2.60;;;;;;;21.51;17.81;100276.78;5331345;26;20023;-73
2024/04/24 11:26:32;;;;;;;4.50;2.50;;;;;;;20.89;18.33;100280.44;5355780;26;20029;-71
2024/04/24 11:29:03;;;;;;;9.10;2.67;;;;;;;20.46;18.92;100258.47;5321988;26;20000;-70
2024/04/24 11:31:32;;;;;;;11.88;3.15;;;;;;;20.31;19.17;100265.28;5309491;26;20001;-70